createdAt,value
2023-05-09T00:00:24.239Z,18.60
2023-05-09T00:01:45.808Z,27.60
2023-05-09T00:02:47.282Z,20.80
2023-05-09T00:03:50.951Z,21.10
2023-05-09T00:04:52.491Z,19.70
2023-05-09T00:05:53.982Z,15.70
2023-05-09T00:06:55.566Z,17.60
2023-05-09T00:07:57.160Z,20.60
2023-05-09T00:08:58.913Z,18.80
2023-05-09T00:10:00.704Z,21.30
2023-05-09T00:11:02.201Z,23.70
2023-05-09T00:12:03.882Z,24.60
2023-05-09T00:13:05.363Z,20.10
2023-05-09T00:14:07.382Z,18.50
2023-05-09T00:15:09.570Z,14.30
2023-05-09T00:16:10.963Z,23.70
2023-05-09T00:17:13.989Z,17.30
2023-05-09T00:18:17.374Z,20.60
2023-05-09T00:19:18.934Z,17.20
2023-05-09T00:20:21.071Z,19.70
2023-05-09T00:21:22.503Z,21.30
2023-05-09T00:22:24.042Z,15.90
2023-05-09T00:23:25.465Z,17.90
2023-05-09T00:24:27.266Z,20.20
2023-05-09T00:25:28.653Z,17.30
2023-05-09T00:26:30.113Z,16.90
2023-05-09T00:27:31.720Z,19.00
2023-05-09T00:28:33.589Z,20.00
2023-05-09T00:29:35.508Z,15.50
2023-05-09T00:30:36.866Z,18.40
2023-05-09T00:31:38.317Z,16.30
2023-05-09T00:32:40.813Z,18.60
2023-05-09T00:33:42.293Z,17.90
2023-05-09T00:34:44.054Z,19.90
2023-05-09T00:35:45.668Z,17.20
2023-05-09T00:36:47.152Z,14.10
2023-05-09T00:37:48.698Z,15.00
2023-05-09T00:38:50.592Z,19.40
2023-05-09T00:39:52.604Z,16.90
2023-05-09T00:40:54.173Z,15.10
2023-05-09T00:41:56.359Z,18.50
2023-05-09T00:42:59.455Z,16.20
2023-05-09T00:44:00.914Z,16.00
2023-05-09T00:45:02.838Z,20.10
2023-05-09T00:46:04.562Z,18.30
2023-05-09T00:47:06.517Z,17.90
2023-05-09T00:48:08.390Z,16.40
2023-05-09T00:49:11.665Z,20.10
2023-05-09T00:50:13.273Z,20.10
2023-05-09T00:51:16.300Z,18.50
2023-05-09T00:52:22.541Z,17.30
2023-05-09T00:53:24.689Z,18.20
2023-05-09T00:54:26.277Z,17.20
2023-05-09T00:55:28.101Z,17.30
2023-05-09T00:56:30.550Z,15.40
2023-05-09T00:57:32.722Z,18.60
2023-05-09T00:58:34.299Z,15.70
2023-05-09T00:59:36.142Z,13.60
2023-05-09T01:00:38.103Z,16.30
2023-05-09T01:01:40.336Z,18.80
2023-05-09T01:02:44.245Z,17.40
2023-05-09T01:03:46.871Z,17.10
2023-05-09T01:04:48.682Z,17.40
2023-05-09T01:06:06.613Z,19.60
2023-05-09T01:07:15.211Z,17.20
2023-05-09T01:08:31.516Z,18.10
2023-05-09T01:09:50.125Z,17.50
2023-05-09T01:11:06.507Z,17.00
2023-05-09T01:12:17.298Z,18.20
2023-05-09T01:14:05.202Z,17.30
2023-05-09T01:15:26.849Z,16.30
2023-05-09T01:16:45.203Z,17.70
2023-05-09T01:18:15.646Z,19.00
2023-05-09T01:19:43.381Z,19.00
2023-05-09T01:20:56.537Z,20.10
2023-05-09T01:22:01.504Z,15.90
2023-05-09T01:23:15.295Z,20.80
2023-05-09T01:25:01.273Z,19.10
2023-05-09T01:26:05.162Z,18.80
2023-05-09T01:27:22.720Z,21.90
2023-05-09T01:29:00.882Z,18.70
2023-05-09T01:30:04.128Z,15.70
2023-05-09T01:31:29.380Z,20.10
2023-05-09T01:32:32.519Z,17.10
2023-05-09T01:33:40.198Z,17.60
2023-05-09T01:34:44.538Z,23.30
2023-05-09T01:35:51.895Z,18.20
2023-05-09T01:36:57.833Z,15.20
2023-05-09T01:38:01.695Z,15.90
2023-05-09T01:39:05.693Z,16.60
2023-05-09T01:40:13.005Z,17.90
2023-05-09T01:41:17.334Z,21.40
2023-05-09T01:42:20.728Z,18.50
2023-05-09T01:43:25.141Z,15.90
2023-05-09T01:44:32.114Z,17.00
2023-05-09T01:45:35.675Z,18.80
2023-05-09T01:46:38.517Z,16.30
2023-05-09T01:47:41.263Z,17.40
2023-05-09T01:48:44.889Z,17.10
2023-05-09T01:49:47.285Z,18.80
2023-05-09T01:50:48.708Z,16.60
2023-05-09T01:51:51.463Z,22.20
2023-05-09T01:52:55.782Z,15.10
2023-05-09T01:53:58.981Z,15.30
2023-05-09T01:55:01.868Z,17.60
2023-05-09T01:56:04.821Z,16.60
2023-05-09T01:57:07.659Z,17.60
2023-05-09T01:58:10.550Z,15.90
2023-05-09T01:59:15.646Z,16.90
2023-05-09T02:00:18.770Z,19.70
2023-05-09T02:01:21.283Z,17.90
2023-05-09T02:02:22.877Z,17.60
2023-05-09T02:03:25.429Z,16.10
2023-05-09T02:04:28.593Z,16.60
2023-05-09T02:05:32.375Z,17.00
2023-05-09T02:06:35.705Z,15.90
2023-05-09T02:07:40.549Z,17.00
2023-05-09T02:08:42.961Z,15.00
2023-05-09T02:09:45.721Z,16.00
2023-05-09T02:10:49.034Z,18.20
2023-05-09T02:11:50.588Z,16.60
2023-05-09T02:12:53.186Z,17.10
2023-05-09T02:13:54.686Z,17.30
2023-05-09T02:14:56.268Z,15.60
2023-05-09T02:15:58.837Z,17.70
2023-05-09T02:17:05.580Z,15.70
2023-05-09T02:18:07.113Z,16.90
2023-05-09T02:19:08.890Z,18.20
2023-05-09T02:20:11.322Z,14.50
2023-05-09T02:21:12.931Z,19.10
2023-05-09T02:22:15.171Z,18.20
2023-05-09T02:23:16.717Z,22.60
2023-05-09T02:24:18.240Z,20.70
2023-05-09T02:25:19.857Z,20.20
2023-05-09T02:26:22.053Z,28.70
2023-05-09T02:27:24.261Z,26.20
2023-05-09T02:28:28.000Z,18.00
2023-05-09T02:29:39.647Z,23.80
2023-05-09T02:30:46.756Z,21.70
2023-05-09T02:31:50.797Z,25.30
2023-05-09T02:33:00.475Z,20.80
2023-05-09T02:34:04.375Z,25.50
2023-05-09T02:35:09.649Z,24.60
2023-05-09T02:36:12.375Z,34.50
2023-05-09T02:37:15.392Z,34.80
2023-05-09T02:38:18.445Z,25.40
2023-05-09T02:39:19.988Z,31.80
2023-05-09T02:40:22.560Z,25.30
2023-05-09T02:41:27.969Z,26.20
2023-05-09T02:42:30.278Z,34.80
2023-05-09T02:43:31.872Z,33.90
2023-05-09T02:44:34.251Z,25.20
2023-05-09T02:45:35.849Z,30.40
2023-05-09T02:46:37.570Z,26.40
2023-05-09T02:47:39.140Z,28.60
2023-05-09T02:48:40.948Z,29.80
2023-05-09T02:49:42.452Z,33.90
2023-05-09T02:50:45.415Z,31.20
2023-05-09T02:51:47.227Z,43.00
2023-05-09T02:52:49.875Z,31.50
2023-05-09T02:53:51.319Z,39.60
2023-05-09T02:54:52.776Z,35.90
2023-05-09T02:55:54.351Z,35.40
2023-05-09T02:56:56.104Z,39.40
2023-05-09T02:58:12.044Z,34.20
2023-05-09T02:59:17.447Z,42.40
2023-05-09T03:00:20.956Z,37.20
2023-05-09T03:01:22.525Z,44.50
2023-05-09T03:02:24.163Z,37.70
2023-05-09T03:03:26.388Z,44.40
2023-05-09T03:04:27.970Z,45.30
2023-05-09T03:05:29.845Z,41.30
2023-05-09T03:06:31.341Z,41.70
2023-05-09T03:07:33.453Z,46.90
2023-05-09T03:08:35.206Z,49.40
2023-05-09T03:09:38.766Z,51.20
2023-05-09T03:10:42.158Z,43.30
2023-05-09T03:11:43.669Z,45.20
2023-05-09T03:12:45.357Z,43.20
2023-05-09T03:13:46.968Z,41.00
2023-05-09T03:14:48.399Z,45.70
2023-05-09T03:15:49.757Z,56.60
2023-05-09T03:16:51.449Z,46.30
2023-05-09T03:18:03.243Z,52.40
2023-05-09T03:19:04.833Z,57.20
2023-05-09T03:20:07.260Z,44.00
2023-05-09T03:21:08.907Z,44.90
2023-05-09T03:22:11.171Z,52.10
2023-05-09T03:23:16.194Z,43.70
2023-05-09T03:24:17.709Z,47.80
2023-05-09T03:25:19.312Z,49.70
2023-05-09T03:26:21.078Z,43.80
2023-05-09T03:27:23.667Z,48.10
2023-05-09T03:28:25.958Z,40.80
2023-05-09T03:29:27.735Z,41.10
2023-05-09T03:30:29.197Z,38.70
2023-05-09T03:31:31.342Z,40.80
2023-05-09T03:32:32.854Z,34.50
2023-05-09T03:33:34.328Z,36.50
2023-05-09T03:34:35.889Z,41.60
2023-05-09T03:35:37.994Z,34.50
2023-05-09T03:36:43.082Z,28.40
2023-05-09T03:37:46.047Z,25.60
2023-05-09T03:38:47.505Z,32.70
2023-05-09T03:39:49.623Z,26.20
2023-05-09T03:40:53.381Z,31.00
2023-05-09T03:41:55.604Z,25.20
2023-05-09T03:42:57.103Z,34.90
2023-05-09T03:43:58.546Z,25.10
2023-05-09T03:45:01.266Z,24.80
2023-05-09T03:46:03.840Z,25.30
2023-05-09T03:47:06.475Z,26.20
2023-05-09T03:48:12.060Z,20.90
2023-05-09T03:49:18.821Z,21.10
2023-05-09T03:50:20.730Z,24.60
2023-05-09T03:51:22.937Z,24.60
2023-05-09T03:52:25.051Z,24.50
2023-05-09T03:53:26.519Z,26.60
2023-05-09T03:54:31.885Z,22.70
2023-05-09T03:55:33.961Z,22.50
2023-05-09T03:56:36.304Z,22.00
2023-05-09T03:57:38.413Z,22.10
2023-05-09T03:58:41.095Z,19.80
2023-05-09T03:59:42.695Z,21.00
2023-05-09T04:00:44.711Z,21.00
2023-05-09T04:01:48.290Z,20.50
2023-05-09T04:02:50.342Z,19.40
2023-05-09T04:03:58.380Z,20.30
2023-05-09T04:05:00.961Z,21.90
2023-05-09T04:06:04.395Z,21.60
2023-05-09T04:07:09.728Z,21.90
2023-05-09T04:08:11.833Z,23.60
2023-05-09T04:09:14.164Z,23.20
2023-05-09T04:10:16.191Z,21.30
2023-05-09T04:11:17.950Z,22.00
2023-05-09T04:12:21.653Z,17.70
2023-05-09T04:13:23.236Z,20.80
2023-05-09T04:14:25.109Z,21.30
2023-05-09T04:15:26.894Z,18.00
2023-05-09T04:16:29.727Z,18.50
2023-05-09T04:17:31.354Z,15.40
2023-05-09T04:18:32.968Z,17.70
2023-05-09T04:19:34.782Z,19.50
2023-05-09T04:20:36.322Z,21.50
2023-05-09T04:21:37.733Z,18.50
2023-05-09T04:22:39.369Z,21.30
2023-05-09T04:23:42.941Z,17.50
2023-05-09T04:24:44.916Z,14.90
2023-05-09T04:25:46.694Z,19.50
2023-05-09T04:26:48.318Z,18.70
2023-05-09T04:27:53.845Z,19.70
2023-05-09T04:28:55.537Z,22.80
2023-05-09T04:29:57.912Z,20.50
2023-05-09T04:31:00.736Z,19.20
2023-05-09T04:32:04.702Z,18.90
2023-05-09T04:33:06.248Z,20.30
2023-05-09T04:34:08.027Z,17.30
2023-05-09T04:35:10.478Z,15.60
2023-05-09T04:36:17.026Z,17.90
2023-05-09T04:37:19.529Z,15.30
2023-05-09T04:38:21.359Z,15.90
2023-05-09T04:39:23.106Z,16.30
2023-05-09T04:40:31.121Z,20.00
2023-05-09T04:41:35.035Z,17.80
2023-05-09T04:42:36.820Z,17.20
2023-05-09T04:43:38.778Z,20.90
2023-05-09T04:44:40.644Z,17.70
2023-05-09T04:45:44.612Z,16.60
2023-05-09T04:46:46.731Z,19.20
2023-05-09T04:47:48.245Z,18.40
2023-05-09T04:48:49.824Z,17.80
2023-05-09T04:49:51.836Z,20.40
2023-05-09T04:50:53.216Z,16.90
2023-05-09T04:51:54.804Z,17.50
2023-05-09T04:52:56.316Z,20.60
2023-05-09T04:53:57.969Z,17.00
2023-05-09T04:55:03.849Z,16.90
2023-05-09T04:56:08.458Z,18.10
2023-05-09T04:57:17.801Z,18.20
2023-05-09T04:58:21.591Z,20.10
2023-05-09T04:59:23.259Z,19.70
2023-05-09T05:00:24.932Z,20.10
2023-05-09T05:01:26.510Z,16.80
2023-05-09T05:02:29.051Z,16.40
2023-05-09T05:03:31.364Z,22.60
2023-05-09T05:04:33.103Z,18.40
2023-05-09T05:05:37.132Z,18.60
2023-05-09T05:06:40.224Z,17.90
2023-05-09T05:07:43.635Z,25.50
2023-05-09T05:08:46.993Z,20.40
2023-05-09T05:09:48.555Z,18.90
2023-05-09T05:10:50.698Z,18.10
2023-05-09T05:12:00.746Z,24.00
2023-05-09T05:13:04.432Z,19.70
2023-05-09T05:14:06.236Z,20.90
2023-05-09T05:15:08.653Z,19.20
2023-05-09T05:16:10.272Z,19.30
2023-05-09T05:17:11.889Z,20.50
2023-05-09T05:18:14.177Z,23.90
2023-05-09T05:19:15.785Z,18.90
2023-05-09T05:20:17.646Z,20.50
2023-05-09T05:21:20.089Z,19.80
2023-05-09T05:22:22.364Z,15.40
2023-05-09T05:23:23.980Z,16.50
2023-05-09T05:24:27.549Z,21.30
2023-05-09T05:25:30.699Z,19.70
2023-05-09T05:26:32.589Z,22.00
2023-05-09T05:27:34.354Z,20.60
2023-05-09T05:28:35.974Z,20.80
2023-05-09T05:29:37.589Z,21.70
2023-05-09T05:30:40.352Z,23.30
2023-05-09T05:31:41.973Z,20.40
2023-05-09T05:32:43.863Z,18.50
2023-05-09T05:33:45.548Z,20.40
2023-05-09T05:34:47.314Z,23.70
2023-05-09T05:35:49.196Z,22.60
2023-05-09T05:36:50.788Z,18.50
2023-05-09T05:37:52.476Z,20.70
2023-05-09T05:38:54.031Z,22.80
2023-05-09T05:39:55.599Z,19.50
2023-05-09T05:40:58.794Z,19.50
2023-05-09T05:42:00.649Z,24.40
2023-05-09T05:43:02.177Z,22.40
2023-05-09T05:44:04.979Z,21.00
2023-05-09T05:45:08.076Z,19.40
2023-05-09T05:46:12.612Z,23.30
2023-05-09T05:47:14.205Z,20.60
2023-05-09T05:48:16.621Z,21.50
2023-05-09T05:49:18.136Z,23.60
2023-05-09T05:50:19.753Z,33.60
2023-05-09T05:51:21.521Z,31.20
2023-05-09T05:52:23.115Z,26.90
2023-05-09T05:53:24.793Z,28.40
2023-05-09T05:54:26.665Z,24.30
2023-05-09T05:55:28.928Z,27.10
2023-05-09T05:56:31.706Z,25.80
2023-05-09T05:57:37.048Z,32.10
2023-05-09T05:58:39.651Z,39.90
2023-05-09T05:59:41.479Z,34.40
2023-05-09T06:00:43.289Z,27.90
2023-05-09T06:01:44.796Z,25.00
2023-05-09T06:02:47.318Z,32.60
2023-05-09T06:03:55.324Z,28.20
2023-05-09T06:04:58.940Z,24.00
2023-05-09T06:06:00.775Z,32.70
2023-05-09T06:07:02.227Z,28.60
2023-05-09T06:08:04.031Z,27.60
2023-05-09T06:09:07.090Z,25.30
2023-05-09T06:10:10.738Z,22.30
2023-05-09T06:11:12.512Z,24.10
2023-05-09T06:12:16.391Z,26.10
2023-05-09T06:13:18.106Z,29.80
2023-05-09T06:14:23.245Z,21.90
2023-05-09T06:15:25.425Z,24.20
2023-05-09T06:16:27.319Z,27.00
2023-05-09T06:17:28.851Z,27.90
2023-05-09T06:18:30.734Z,26.30
2023-05-09T06:19:32.208Z,20.80
2023-05-09T06:20:35.493Z,19.90
2023-05-09T06:21:37.083Z,22.20
2023-05-09T06:22:38.834Z,22.60
2023-05-09T06:23:47.241Z,24.40
2023-05-09T06:24:52.808Z,20.00
2023-05-09T06:25:54.267Z,24.20
2023-05-09T06:26:55.987Z,25.30
2023-05-09T06:27:57.456Z,21.50
2023-05-09T06:28:59.109Z,22.40
2023-05-09T06:30:02.687Z,20.10
2023-05-09T06:31:07.570Z,23.80
2023-05-09T06:32:09.056Z,24.30
2023-05-09T06:33:10.674Z,18.70
2023-05-09T06:34:12.114Z,19.40
2023-05-09T06:35:15.218Z,23.20
2023-05-09T06:36:17.202Z,18.00
2023-05-09T06:37:18.848Z,17.40
2023-05-09T06:38:20.339Z,23.70
2023-05-09T06:39:21.924Z,21.60
2023-05-09T06:40:23.354Z,22.90
2023-05-09T06:41:25.601Z,29.00
2023-05-09T06:42:27.974Z,19.80
2023-05-09T06:43:29.412Z,18.00
2023-05-09T06:44:32.079Z,17.50
2023-05-09T06:45:33.652Z,19.10
2023-05-09T06:46:35.166Z,24.20
2023-05-09T06:47:36.733Z,19.10
2023-05-09T06:48:38.181Z,19.70
2023-05-09T06:49:39.871Z,19.80
2023-05-09T06:50:41.289Z,16.70
2023-05-09T06:51:42.905Z,20.60
2023-05-09T06:52:44.502Z,19.20
2023-05-09T06:53:45.924Z,20.30
2023-05-09T06:54:47.476Z,17.70
2023-05-09T06:55:48.936Z,19.70
2023-05-09T06:56:50.404Z,17.30
2023-05-09T06:57:52.145Z,21.00
2023-05-09T06:58:53.791Z,14.50
2023-05-09T06:59:55.180Z,16.10
2023-05-09T07:00:56.712Z,14.60
2023-05-09T07:01:58.346Z,16.20
2023-05-09T07:03:00.455Z,17.40
2023-05-09T07:04:01.899Z,14.40
2023-05-09T07:05:03.666Z,13.10
2023-05-09T07:06:05.241Z,17.60
2023-05-09T07:07:07.076Z,11.00
2023-05-09T07:08:08.523Z,17.00
2023-05-09T07:09:10.423Z,16.70
2023-05-09T07:10:12.643Z,19.30
2023-05-09T07:11:15.684Z,19.00
2023-05-09T07:12:17.336Z,24.30
2023-05-09T07:13:19.045Z,15.60
2023-05-09T07:14:20.663Z,15.20
2023-05-09T07:15:36.850Z,13.70
2023-05-09T07:16:42.605Z,17.80
2023-05-09T07:17:44.342Z,14.20
2023-05-09T07:18:45.823Z,17.90
2023-05-09T07:19:47.204Z,13.30
2023-05-09T07:20:48.709Z,13.20
2023-05-09T07:21:50.219Z,11.50
2023-05-09T07:22:51.905Z,11.50
2023-05-09T07:23:53.607Z,13.40
2023-05-09T07:24:55.092Z,13.30
2023-05-09T07:25:57.997Z,14.40
2023-05-09T07:27:03.073Z,10.70
2023-05-09T07:28:05.250Z,11.00
2023-05-09T07:29:06.669Z,13.60
2023-05-09T07:30:08.667Z,10.10
2023-05-09T07:31:10.084Z,9.60
2023-05-09T07:32:11.510Z,11.30
2023-05-09T07:33:13.013Z,12.00
2023-05-09T07:34:16.142Z,12.50
2023-05-09T07:35:18.695Z,9.90
2023-05-09T07:36:20.458Z,11.20
2023-05-09T07:37:21.919Z,12.40
2023-05-09T07:38:23.380Z,11.00
2023-05-09T07:39:25.110Z,10.00
2023-05-09T07:40:26.574Z,13.30
2023-05-09T07:41:28.002Z,9.30
2023-05-09T07:42:31.988Z,9.90
2023-05-09T07:43:33.723Z,8.20
2023-05-09T07:44:35.192Z,10.50
2023-05-09T07:45:36.663Z,9.00
2023-05-09T07:46:40.317Z,10.50
2023-05-09T07:47:41.746Z,12.70
2023-05-09T07:48:43.582Z,10.60
2023-05-09T07:49:46.063Z,9.60
2023-05-09T07:50:47.467Z,10.20
2023-05-09T07:51:48.821Z,11.60
2023-05-09T07:52:51.297Z,10.00
2023-05-09T07:53:54.734Z,11.50
2023-05-09T07:54:56.597Z,10.60
2023-05-09T07:55:58.320Z,17.20
2023-05-09T07:56:59.761Z,10.20
2023-05-09T07:58:01.203Z,9.50
2023-05-09T07:59:02.771Z,11.90
2023-05-09T08:00:05.866Z,10.60
2023-05-09T08:01:14.968Z,9.40
2023-05-09T08:02:16.449Z,11.40
2023-05-09T08:03:20.152Z,9.00
2023-05-09T08:04:21.712Z,8.60
2023-05-09T08:05:23.166Z,11.50
2023-05-09T08:06:25.528Z,11.70
2023-05-09T08:07:26.920Z,9.70
2023-05-09T08:08:28.460Z,8.20
2023-05-09T08:09:29.914Z,8.40
2023-05-09T08:10:32.890Z,8.20
2023-05-09T08:11:35.312Z,8.90
2023-05-09T08:12:36.820Z,9.60
2023-05-09T08:13:38.216Z,11.00
2023-05-09T08:14:40.235Z,8.20
2023-05-09T08:15:41.724Z,10.10
2023-05-09T08:16:43.340Z,9.80
2023-05-09T08:17:44.896Z,9.40
2023-05-09T08:18:46.436Z,9.70
2023-05-09T08:19:48.134Z,10.40
2023-05-09T08:20:50.333Z,9.00
2023-05-09T08:21:52.688Z,11.20
2023-05-09T08:22:54.150Z,7.90
2023-05-09T08:23:56.309Z,8.90
2023-05-09T08:24:57.808Z,8.70
2023-05-09T08:26:00.436Z,12.40
2023-05-09T08:27:02.080Z,9.80
2023-05-09T08:28:03.848Z,9.00
2023-05-09T08:29:05.293Z,9.10
2023-05-09T08:30:07.495Z,9.20
2023-05-09T08:31:09.076Z,8.70
2023-05-09T08:32:10.586Z,10.30
2023-05-09T08:33:12.692Z,13.50
2023-05-09T08:34:14.113Z,11.00
2023-05-09T08:35:16.512Z,8.60
2023-05-09T08:36:18.520Z,8.40
2023-05-09T08:37:19.954Z,8.10
2023-05-09T08:38:21.722Z,8.60
2023-05-09T08:39:23.113Z,8.10
2023-05-09T08:40:24.777Z,10.20
2023-05-09T08:41:27.398Z,9.50
2023-05-09T08:42:31.477Z,15.70
2023-05-09T08:43:33.839Z,9.10
2023-05-09T08:44:35.318Z,7.80
2023-05-09T08:45:59.871Z,8.40
2023-05-09T08:47:03.367Z,8.30
2023-05-09T08:48:06.252Z,8.70
2023-05-09T08:49:08.590Z,7.20
2023-05-09T08:50:11.147Z,7.50
2023-05-09T08:51:15.578Z,8.40
2023-05-09T08:52:18.093Z,9.30
2023-05-09T08:53:21.068Z,6.20
2023-05-09T08:54:23.953Z,9.80
2023-05-09T08:55:26.440Z,7.40
2023-05-09T08:56:30.537Z,7.40
2023-05-09T08:57:36.905Z,9.60
2023-05-09T08:58:38.456Z,6.50
2023-05-09T08:59:41.646Z,8.80
2023-05-09T09:00:44.071Z,6.70
2023-05-09T09:01:46.073Z,8.90
2023-05-09T09:02:48.218Z,8.30
2023-05-09T09:03:50.216Z,10.40
2023-05-09T09:04:53.653Z,8.40
2023-05-09T09:05:55.994Z,5.20
2023-05-09T09:06:58.880Z,9.50
2023-05-09T09:08:01.195Z,9.00
2023-05-09T09:09:05.598Z,8.90
2023-05-09T09:10:10.188Z,8.00
2023-05-09T09:11:13.177Z,10.80
2023-05-09T09:12:16.339Z,8.30
2023-05-09T09:13:18.057Z,6.30
2023-05-09T09:14:26.975Z,6.20
2023-05-09T09:15:36.494Z,13.70
2023-05-09T09:16:38.961Z,6.80
2023-05-09T09:17:43.464Z,8.10
2023-05-09T09:18:45.642Z,6.90
2023-05-09T09:19:49.869Z,9.50
2023-05-09T09:20:57.078Z,6.30
2023-05-09T09:22:01.838Z,5.40
2023-05-09T09:23:10.081Z,5.90
2023-05-09T09:24:12.939Z,6.40
2023-05-09T09:25:14.330Z,6.40
2023-05-09T09:26:16.137Z,6.90
2023-05-09T09:27:18.107Z,11.80
2023-05-09T09:28:20.568Z,6.20
2023-05-09T09:29:22.520Z,6.00
2023-05-09T09:30:24.876Z,7.80
2023-05-09T09:31:31.734Z,5.40
2023-05-09T09:32:34.119Z,7.30
2023-05-09T09:33:35.869Z,5.70
2023-05-09T09:34:37.516Z,6.50
2023-05-09T09:35:39.718Z,9.00
2023-05-09T09:36:41.422Z,5.70
2023-05-09T09:37:43.151Z,8.00
2023-05-09T09:38:44.792Z,7.20
2023-05-09T09:39:54.549Z,7.70
2023-05-09T09:40:57.916Z,7.20
2023-05-09T09:42:11.092Z,8.60
2023-05-09T09:43:12.467Z,8.00
2023-05-09T09:44:19.634Z,7.10
2023-05-09T09:45:21.191Z,5.60
2023-05-09T09:46:22.771Z,6.00
2023-05-09T09:47:31.458Z,8.30
2023-05-09T09:48:34.814Z,7.40
2023-05-09T09:49:36.329Z,6.20
2023-05-09T09:50:37.774Z,8.80
2023-05-09T09:51:40.276Z,6.40
2023-05-09T09:52:55.526Z,6.90
2023-05-09T09:53:56.905Z,8.30
2023-05-09T09:54:59.522Z,6.40
2023-05-09T09:56:00.960Z,6.80
2023-05-09T09:57:02.522Z,7.10
2023-05-09T09:58:17.080Z,7.30
2023-05-09T09:59:22.804Z,7.70
2023-05-09T10:00:30.153Z,9.00
2023-05-09T10:01:31.765Z,7.90
2023-05-09T10:02:33.459Z,7.90
2023-05-09T10:03:45.647Z,8.20
2023-05-09T10:04:47.432Z,7.70
2023-05-09T10:06:00.768Z,6.90
2023-05-09T10:07:11.529Z,7.80
2023-05-09T10:08:15.801Z,9.00
2023-05-09T10:09:17.633Z,8.80
2023-05-09T10:10:19.721Z,6.90
2023-05-09T10:11:21.921Z,9.30
2023-05-09T10:12:23.432Z,7.90
2023-05-09T10:13:26.291Z,8.50
2023-05-09T10:14:31.244Z,8.20
2023-05-09T10:15:49.049Z,9.20
2023-05-09T10:16:57.002Z,7.90
2023-05-09T10:18:03.620Z,7.00
2023-05-09T10:19:06.070Z,7.90
2023-05-09T10:20:09.657Z,6.90
2023-05-09T10:21:15.190Z,5.90
2023-05-09T10:22:18.564Z,7.30
2023-05-09T10:23:20.663Z,8.60
2023-05-09T10:24:29.170Z,7.90
2023-05-09T10:25:43.842Z,6.80
2023-05-09T10:26:51.430Z,6.20
2023-05-09T10:28:01.571Z,8.30
2023-05-09T10:29:09.312Z,6.70
2023-05-09T10:30:34.119Z,8.70
2023-05-09T10:31:38.754Z,8.90
2023-05-09T10:32:48.833Z,7.70
2023-05-09T10:33:51.748Z,6.80
2023-05-09T10:35:01.653Z,6.10
2023-05-09T10:36:04.461Z,7.40
2023-05-09T10:37:07.909Z,6.20
2023-05-09T10:38:11.798Z,5.80
2023-05-09T10:39:14.326Z,9.40
2023-05-09T10:40:19.391Z,9.30
2023-05-09T10:41:21.533Z,13.30
2023-05-09T10:42:27.913Z,5.50
2023-05-09T10:43:31.630Z,5.50
2023-05-09T10:44:34.597Z,6.80
2023-05-09T10:45:36.333Z,7.80
2023-05-09T10:46:38.777Z,6.70
2023-05-09T10:47:41.840Z,5.80
2023-05-09T10:48:44.205Z,6.80
2023-05-09T10:49:46.552Z,4.90
2023-05-09T10:50:48.566Z,7.70
2023-05-09T10:51:53.234Z,7.60
2023-05-09T10:53:13.263Z,6.30
2023-05-09T10:54:29.300Z,4.70
2023-05-09T10:55:59.685Z,4.90
2023-05-09T10:57:01.265Z,7.70
2023-05-09T10:58:26.198Z,9.40
2023-05-09T10:59:37.237Z,5.70
2023-05-09T11:00:41.755Z,9.10
2023-05-09T11:01:43.242Z,5.40
2023-05-09T11:03:07.934Z,4.70
2023-05-09T11:04:15.903Z,8.50
2023-05-09T11:05:19.782Z,4.10
2023-05-09T11:06:43.863Z,6.40
2023-05-09T11:07:45.428Z,9.70
2023-05-09T11:08:47.116Z,4.90
2023-05-09T11:09:51.532Z,8.00
2023-05-09T11:11:00.302Z,4.00
2023-05-09T11:12:04.706Z,9.70
2023-05-09T11:13:06.958Z,6.30
2023-05-09T11:14:08.377Z,7.40
2023-05-09T11:15:10.803Z,4.30
2023-05-09T11:16:12.324Z,5.00
2023-05-09T11:17:35.102Z,4.00
2023-05-09T11:18:51.657Z,7.10
2023-05-09T11:19:53.152Z,4.00
2023-05-09T11:20:55.614Z,8.80
2023-05-09T11:22:25.613Z,10.20
2023-05-09T11:23:30.658Z,4.40
2023-05-09T11:24:32.597Z,8.30
2023-05-09T11:25:34.057Z,6.50
2023-05-09T11:26:37.971Z,7.30
2023-05-09T11:27:47.981Z,5.80
2023-05-09T11:28:53.351Z,6.90
2023-05-09T11:29:58.877Z,3.90
2023-05-09T11:31:16.487Z,3.90
2023-05-09T11:32:19.358Z,4.30
2023-05-09T11:33:29.463Z,6.30
2023-05-09T11:34:30.913Z,5.20
2023-05-09T11:35:36.157Z,4.90
2023-05-09T11:36:47.011Z,5.10
2023-05-09T11:37:59.358Z,6.10
2023-05-09T11:39:02.402Z,4.90
2023-05-09T11:40:04.256Z,6.80
2023-05-09T11:41:06.305Z,6.30
2023-05-09T11:42:08.428Z,5.80
2023-05-09T11:43:10.004Z,5.20
2023-05-09T11:44:16.292Z,6.90
2023-05-09T11:45:18.114Z,5.40
2023-05-09T11:46:19.884Z,5.00
2023-05-09T11:47:21.462Z,4.10
2023-05-09T11:48:23.911Z,5.70
2023-05-09T11:49:27.576Z,6.20
2023-05-09T11:50:29.227Z,4.50
2023-05-09T11:51:31.681Z,7.20
2023-05-09T11:52:33.909Z,5.90
2023-05-09T11:53:44.714Z,8.20
2023-05-09T11:54:46.113Z,7.70
2023-05-09T11:55:47.956Z,3.60
2023-05-09T11:56:49.383Z,5.40
2023-05-09T11:57:53.054Z,4.00
2023-05-09T11:58:54.779Z,7.10
2023-05-09T11:59:56.752Z,8.70
2023-05-09T12:00:59.854Z,5.80
2023-05-09T12:02:06.168Z,4.40
2023-05-09T12:03:07.800Z,4.30
2023-05-09T12:04:09.557Z,3.40
2023-05-09T12:05:14.176Z,4.80
2023-05-09T12:06:17.659Z,6.30
2023-05-09T12:07:20.000Z,3.90
2023-05-09T12:08:23.885Z,5.20
2023-05-09T12:09:31.012Z,4.40
2023-05-09T12:10:37.206Z,6.10
2023-05-09T12:11:39.072Z,4.90
2023-05-09T12:12:49.176Z,8.30
2023-05-09T12:14:54.043Z,5.10
2023-05-09T12:16:01.904Z,7.50
2023-05-09T12:17:03.757Z,7.70
2023-05-09T12:18:07.898Z,4.30
2023-05-09T12:19:09.545Z,4.80
2023-05-09T12:20:12.045Z,4.40
2023-05-09T12:21:13.699Z,8.70
2023-05-09T12:22:15.433Z,6.00
2023-05-09T12:23:17.769Z,6.60
2023-05-09T12:24:22.408Z,5.40
2023-05-09T12:25:23.946Z,4.50
2023-05-09T12:26:26.398Z,7.40
2023-05-09T12:27:29.146Z,6.50
2023-05-09T12:28:31.016Z,6.20
2023-05-09T12:29:32.672Z,4.70
2023-05-09T12:30:34.191Z,4.10
2023-05-09T12:31:36.624Z,5.80
2023-05-09T12:32:39.742Z,5.00
2023-05-09T12:33:41.800Z,3.60
2023-05-09T12:34:45.037Z,5.40
2023-05-09T12:35:47.819Z,5.20
2023-05-09T12:36:52.822Z,8.50
2023-05-09T12:37:57.059Z,5.50
2023-05-09T12:38:58.924Z,3.20
2023-05-09T12:40:01.414Z,5.80
2023-05-09T12:41:18.777Z,7.40
2023-05-09T12:42:27.488Z,3.80
2023-05-09T12:43:30.662Z,4.60
2023-05-09T12:44:32.360Z,8.00
2023-05-09T12:45:33.784Z,8.70
2023-05-09T12:46:36.890Z,12.30
2023-05-09T12:47:41.036Z,5.50
2023-05-09T12:48:43.388Z,6.40
2023-05-09T12:49:48.653Z,4.40
2023-05-09T12:50:51.301Z,5.20
2023-05-09T12:51:54.422Z,4.10
2023-05-09T12:53:02.689Z,5.40
2023-05-09T12:54:10.314Z,4.30
2023-05-09T12:55:13.423Z,4.50
2023-05-09T12:56:20.143Z,3.80
2023-05-09T12:57:23.303Z,3.90
2023-05-09T12:58:30.389Z,4.00
2023-05-09T12:59:32.685Z,3.70
2023-05-09T13:00:42.612Z,4.20
2023-05-09T13:02:45.585Z,4.70
2023-05-09T13:04:01.534Z,7.10
2023-05-09T13:05:14.486Z,8.70
2023-05-09T13:06:16.340Z,5.90
2023-05-09T13:07:17.785Z,4.70
2023-05-09T13:08:20.959Z,62.30
2023-05-09T13:09:24.267Z,5.30
2023-05-09T13:10:28.431Z,6.10
2023-05-09T13:11:30.127Z,4.60
2023-05-09T13:12:31.616Z,3.70
2023-05-09T13:13:33.326Z,7.40
2023-05-09T13:14:34.866Z,4.30
2023-05-09T13:15:36.578Z,4.90
2023-05-09T13:16:38.871Z,6.00
2023-05-09T13:17:40.467Z,4.10
2023-05-09T13:18:42.301Z,5.10
2023-05-09T13:19:43.790Z,4.80
2023-05-09T13:20:45.362Z,8.00
2023-05-09T13:21:47.281Z,4.00
2023-05-09T13:22:49.591Z,4.70
2023-05-09T13:23:51.597Z,6.20
2023-05-09T13:24:52.981Z,7.50
2023-05-09T13:25:54.370Z,7.80
2023-05-09T13:26:56.115Z,7.80
2023-05-09T13:27:57.535Z,6.40
2023-05-09T13:28:59.043Z,7.60
2023-05-09T13:30:00.637Z,12.60
2023-05-09T13:31:03.628Z,7.30
2023-05-09T13:32:05.394Z,6.70
2023-05-09T13:33:23.921Z,5.20
2023-05-09T13:34:27.252Z,8.70
2023-05-09T13:35:29.144Z,5.80
2023-05-09T13:36:31.913Z,4.80
2023-05-09T13:37:34.462Z,6.90
2023-05-09T13:38:39.597Z,9.20
2023-05-09T13:39:41.266Z,8.00
2023-05-09T13:40:42.689Z,2.90
2023-05-09T13:41:44.142Z,4.90
2023-05-09T13:42:47.947Z,5.30
2023-05-09T13:43:49.410Z,7.20
2023-05-09T13:44:51.028Z,5.80
2023-05-09T13:45:52.800Z,4.70
2023-05-09T13:46:54.334Z,3.90
2023-05-09T13:47:55.873Z,7.00
2023-05-09T13:48:57.491Z,5.00
2023-05-09T13:49:59.020Z,3.20
2023-05-09T13:51:00.666Z,5.60
2023-05-09T13:52:02.206Z,7.10
2023-05-09T13:53:04.034Z,9.10
2023-05-09T13:54:08.952Z,7.60